Time;durP1;ratioP1;P1;durP2;ratioP2;P2;SDS_P1;SDS_P2;PMS_P1;PMS_P2;Temp;Humidity;BMP_temperature;BMP_pressure;BME280_temperature;BME280_humidity;BME280_pressure;Samples;Min_cycle;Max_cycle;Signal;HPM_P1;HPM_P2
2023/11/26 00:01:43;;;;;;;0.47;0.32;;;3.10;92.70;;;;;;5095560;28;20055;-75
2023/11/26 00:04:08;;;;;;;1.58;0.90;;;3.10;92.70;;;;;;5095424;28;20074;-75
2023/11/26 00:06:34;;;;;;;0.75;0.43;;;3.00;92.70;;;;;;5095817;28;20043;-74
2023/11/26 00:09:00;;;;;;;0.52;0.40;;;3.00;92.70;;;;;;5095283;28;20470;-75
2023/11/26 00:11:26;;;;;;;0.90;0.40;;;3.00;92.70;;;;;;5096031;28;20044;-74
2023/11/26 00:13:52;;;;;;;0.63;0.50;;;2.90;92.70;;;;;;5113850;28;20042;-74
2023/11/26 00:16:19;;;;;;;0.40;0.40;;;2.90;92.80;;;;;;5113762;28;20039;-75
2023/11/26 00:18:45;;;;;;;0.50;0.45;;;2.80;92.80;;;;;;5113272;28;20047;-75
2023/11/26 00:21:11;;;;;;;0.55;0.38;;;2.80;92.80;;;;;;5095191;28;20124;-74
2023/11/26 00:23:37;;;;;;;0.40;0.40;;;2.80;92.80;;;;;;5095285;28;20097;-75
2023/11/26 00:26:03;;;;;;;0.50;0.40;;;2.80;92.80;;;;;;5095119;28;20071;-74
2023/11/26 00:28:28;;;;;;;0.47;0.47;;;2.80;92.80;;;;;;5095545;28;20405;-75
2023/11/26 00:30:55;;;;;;;0.70;0.57;;;2.70;92.70;;;;;;5113917;28;20042;-74
2023/11/26 00:33:21;;;;;;;1.17;0.65;;;2.70;92.70;;;;;;5113693;28;20050;-75
2023/11/26 00:35:47;;;;;;;0.95;0.68;;;2.70;92.80;;;;;;5113110;28;20046;-75
2023/11/26 00:38:12;;;;;;;0.60;0.50;;;2.70;92.80;;;;;;5078163;28;20035;-74
2023/11/26 00:40:39;;;;;;;0.63;0.55;;;2.60;92.80;;;;;;5095440;28;20477;-74
2023/11/26 00:43:04;;;;;;;1.02;0.60;;;2.60;92.80;;;;;;5113471;28;20035;-75
2023/11/26 00:45:30;;;;;;;1.48;0.60;;;2.60;92.80;;;;;;5095121;28;20047;-74
2023/11/26 00:47:57;;;;;;;1.27;0.60;;;2.60;92.80;;;;;;5095545;28;20046;-75
2023/11/26 00:50:23;;;;;;;0.40;0.40;;;2.50;92.80;;;;;;5095634;28;20067;-75
2023/11/26 00:52:49;;;;;;;1.88;0.73;;;2.50;92.80;;;;;;5061718;28;20051;-75
2023/11/26 00:55:15;;;;;;;1.27;0.52;;;2.50;92.80;;;;;;5113132;28;20591;-75
2023/11/26 00:57:41;;;;;;;1.48;0.50;;;2.50;92.80;;;;;;5077623;28;20370;-74
2023/11/26 01:00:10;;;;;;;0.40;0.40;;;2.50;92.80;;;;;;5077179;28;20433;-75
2023/11/26 01:02:36;;;;;;;0.95;0.50;;;2.40;92.80;;;;;;5095136;28;20031;-75
2023/11/26 01:05:03;;;;;;;0.80;0.65;;;2.30;92.80;;;;;;5094872;28;20189;-74
2023/11/26 01:07:30;;;;;;;0.70;0.60;;;2.30;92.80;;;;;;5112539;28;20048;-75
2023/11/26 01:09:58;;;;;;;1.00;0.70;;;2.30;92.90;;;;;;5112480;28;20044;-74
2023/11/26 01:12:25;;;;;;;1.45;0.70;;;2.30;92.80;;;;;;5112511;28;20126;-75
2023/11/26 01:14:51;;;;;;;0.43;0.43;;;2.30;92.80;;;;;;5112653;28;20082;-75
2023/11/26 01:17:17;;;;;;;0.80;0.60;;;2.30;92.80;;;;;;5112444;28;20058;-75
2023/11/26 01:19:43;;;;;;;0.95;0.70;;;2.40;92.80;;;;;;5112236;28;20489;-74
2023/11/26 01:22:08;;;;;;;1.50;0.80;;;2.30;92.80;;;;;;5112311;28;20040;-74
2023/11/26 01:24:34;;;;;;;1.00;0.55;;;2.30;92.80;;;;;;5112332;28;20044;-75
2023/11/26 01:27:01;;;;;;;0.50;0.30;;;2.30;92.80;;;;;;5094619;28;20071;-74
2023/11/26 01:29:27;;;;;;;0.82;0.65;;;2.30;92.80;;;;;;5093848;28;20051;-75
2023/11/26 01:31:54;;;;;;;1.27;0.60;;;2.20;92.80;;;;;;5094010;28;20043;-75
2023/11/26 01:34:20;;;;;;;1.17;0.70;;;2.30;92.80;;;;;;5112216;28;20047;-74
2023/11/26 01:36:45;;;;;;;0.77;0.57;;;2.20;92.80;;;;;;5112160;28;20092;-74
2023/11/26 01:39:11;;;;;;;0.60;0.50;;;2.20;92.80;;;;;;5093875;28;20051;-74
2023/11/26 01:41:37;;;;;;;0.73;0.50;;;2.20;92.80;;;;;;5094122;28;20089;-75
2023/11/26 01:44:03;;;;;;;0.75;0.50;;;2.20;92.80;;;;;;5112051;28;20031;-75
2023/11/26 01:46:29;;;;;;;0.43;0.40;;;2.30;92.80;;;;;;5111792;28;20039;-74
2023/11/26 01:48:55;;;;;;;0.38;0.35;;;2.20;92.70;;;;;;5094279;28;20504;-75
2023/11/26 01:51:22;;;;;;;0.95;0.55;;;2.20;92.70;;;;;;5112676;28;20039;-74
2023/11/26 01:53:50;;;;;;;1.00;0.65;;;2.20;92.70;;;;;;5111863;28;20095;-74
2023/11/26 01:56:18;;;;;;;0.60;0.40;;;2.20;92.70;;;;;;5076531;28;20526;-74
2023/11/26 01:58:44;;;;;;;1.15;0.50;;;2.20;92.70;;;;;;5112191;28;20071;-74
2023/11/26 02:01:14;;;;;;;0.63;0.40;;;2.20;92.70;;;;;;5076803;28;20516;-75
2023/11/26 02:03:39;;;;;;;0.70;0.50;;;2.20;92.70;;;;;;5093707;28;20043;-75
2023/11/26 02:06:06;;;;;;;0.73;0.50;;;2.20;92.70;;;;;;5111886;28;20566;-74
2023/11/26 02:08:32;;;;;;;0.65;0.40;;;2.20;92.70;;;;;;5111826;28;20039;-75
2023/11/26 02:10:59;;;;;;;0.43;0.30;;;2.20;92.80;;;;;;5094556;28;20135;-75
2023/11/26 02:13:25;;;;;;;0.43;0.40;;;2.10;92.70;;;;;;5115299;28;20458;-74
2023/11/26 02:15:51;;;;;;;0.40;0.40;;;2.10;92.70;;;;;;5115602;28;20122;-74
2023/11/26 02:18:19;;;;;;;0.90;0.60;;;2.10;92.70;;;;;;5097086;28;20043;-75
2023/11/26 02:20:45;;;;;;;0.40;0.30;;;2.10;92.70;;;;;;5097459;28;20042;-74
2023/11/26 02:23:12;;;;;;;1.30;0.50;;;2.10;92.70;;;;;;5115755;28;20558;-74
2023/11/26 02:25:38;;;;;;;0.70;0.50;;;2.10;92.70;;;;;;5097300;28;20051;-74
2023/11/26 02:28:07;;;;;;;0.55;0.45;;;2.00;92.70;;;;;;5115145;28;20132;-74
2023/11/26 02:30:34;;;;;;;0.68;0.40;;;2.10;92.80;;;;;;5115508;28;20039;-74
2023/11/26 02:33:00;;;;;;;0.80;0.50;;;2.00;92.70;;;;;;5114945;28;20039;-74
2023/11/26 02:35:27;;;;;;;0.65;0.50;;;2.00;92.80;;;;;;5096515;28;20046;-75
2023/11/26 02:37:55;;;;;;;0.65;0.43;;;2.00;92.70;;;;;;5097191;28;20378;-75
2023/11/26 02:40:22;;;;;;;0.98;0.50;;;2.00;92.70;;;;;;5115078;28;20385;-74
2023/11/26 02:42:47;;;;;;;0.57;0.40;;;2.00;93.00;;;;;;5096870;28;20439;-74
2023/11/26 02:45:13;;;;;;;0.90;0.60;;;2.00;92.80;;;;;;5079757;28;20040;-74
2023/11/26 02:47:39;;;;;;;0.82;0.50;;;2.00;92.80;;;;;;5114946;28;20100;-74
2023/11/26 02:50:08;;;;;;;0.50;0.35;;;1.90;92.80;;;;;;5096631;28;20043;-75
2023/11/26 02:52:34;;;;;;;1.95;0.57;;;2.00;92.80;;;;;;5096366;28;20434;-75
2023/11/26 02:55:00;;;;;;;0.90;0.50;;;2.00;92.80;;;;;;5096288;28;20405;-75
2023/11/26 02:57:26;;;;;;;0.55;0.47;;;2.00;92.80;;;;;;5114310;28;20066;-75
2023/11/26 02:59:52;;;;;;;0.55;0.43;;;2.00;92.80;;;;;;5096130;28;20039;-75
2023/11/26 03:02:18;;;;;;;0.47;0.40;;;1.90;92.70;;;;;;5114490;28;20508;-75
2023/11/26 03:04:52;;;;;;;0.63;0.50;;;1.90;92.70;;;;;;5079598;28;20176;-74
2023/11/26 03:07:20;;;;;;;0.45;0.35;;;1.90;92.80;;;;;;5096129;28;20047;-73
2023/11/26 03:15:14;;;;;;;0.68;0.50;;;1.90;92.70;;;;;;5098222;28;20056;-76
2023/11/26 03:17:40;;;;;;;0.47;0.38;;;1.90;92.70;;;;;;5096394;28;20063;-73
2023/11/26 03:20:06;;;;;;;0.60;0.43;;;1.90;92.70;;;;;;5114409;28;20704;-74
2023/11/26 03:22:32;;;;;;;0.32;0.32;;;1.80;93.00;;;;;;5095364;28;20078;-73
2023/11/26 03:24:58;;;;;;;0.90;0.50;;;1.80;92.80;;;;;;5095913;28;20512;-74
2023/11/26 03:27:25;;;;;;;0.50;0.30;;;1.90;92.80;;;;;;5095921;28;20048;-74
2023/11/26 03:29:50;;;;;;;0.95;0.47;;;1.80;92.80;;;;;;5095817;28;20050;-74
2023/11/26 03:32:16;;;;;;;0.52;0.22;;;1.90;92.80;;;;;;5114184;28;20482;-73
2023/11/26 03:34:42;;;;;;;0.55;0.40;;;1.80;92.80;;;;;;5079048;28;20042;-73
2023/11/26 03:37:07;;;;;;;0.22;0.20;;;1.90;92.80;;;;;;5095914;28;20043;-73
2023/11/26 03:39:40;;;;;;;0.50;0.40;;;1.90;92.80;;;;;;5114027;28;20119;-73
2023/11/26 03:42:06;;;;;;;0.55;0.40;;;2.00;92.80;;;;;;5113904;28;20070;-75
2023/11/26 03:44:31;;;;;;;0.50;0.45;;;1.90;92.70;;;;;;5113884;28;20036;-73
2023/11/26 03:46:58;;;;;;;0.20;0.20;;;1.90;92.70;;;;;;5095769;28;20492;-73
2023/11/26 03:49:23;;;;;;;0.22;0.20;;;1.90;92.70;;;;;;5095523;28;20097;-76
2023/11/26 03:51:49;;;;;;;0.28;0.20;;;1.90;92.70;;;;;;5095571;28;20043;-73
2023/11/26 03:54:15;;;;;;;0.30;0.30;;;1.90;92.70;;;;;;5114358;28;20397;-73
2023/11/26 03:56:41;;;;;;;0.47;0.35;;;2.00;92.70;;;;;;5113686;28;20134;-73
2023/11/26 03:59:07;;;;;;;0.28;0.28;;;1.90;92.70;;;;;;5095320;28;20040;-73
2023/11/26 04:01:32;;;;;;;0.57;0.43;;;2.00;92.70;;;;;;5095513;28;20556;-74
2023/11/26 04:03:58;;;;;;;0.88;0.50;;;1.90;92.70;;;;;;5095289;28;20032;-73
2023/11/26 04:06:24;;;;;;;0.75;0.60;;;1.90;92.70;;;;;;5113705;28;20511;-74
2023/11/26 04:08:50;;;;;;;0.55;0.50;;;1.90;92.70;;;;;;5095940;28;20043;-75
2023/11/26 04:11:15;;;;;;;0.28;0.28;;;2.00;92.70;;;;;;5095312;28;20067;-73
2023/11/26 04:13:41;;;;;;;1.00;0.55;;;1.90;92.70;;;;;;5113271;28;20043;-76
2023/11/26 04:16:11;;;;;;;0.52;0.43;;;1.90;92.60;;;;;;5095536;28;20066;-75
2023/11/26 04:18:37;;;;;;;0.52;0.45;;;1.90;92.70;;;;;;5062201;28;20101;-73
2023/11/26 04:21:07;;;;;;;0.65;0.35;;;1.90;92.70;;;;;;5113883;28;20165;-76
2023/11/26 04:23:32;;;;;;;1.55;0.28;;;1.90;92.70;;;;;;5078784;28;20047;-76
2023/11/26 04:26:00;;;;;;;1.05;0.40;;;1.80;92.70;;;;;;5094958;28;20048;-76
2023/11/26 04:28:26;;;;;;;0.47;0.30;;;1.90;92.70;;;;;;5094869;28;20051;-75
2023/11/26 04:30:51;;;;;;;0.28;0.28;;;1.90;92.70;;;;;;5095666;28;20050;-76
2023/11/26 04:33:18;;;;;;;0.38;0.20;;;1.80;92.70;;;;;;5094727;28;20489;-74
2023/11/26 04:35:45;;;;;;;1.10;0.40;;;1.80;92.70;;;;;;5093969;28;20088;-74
2023/11/26 04:38:11;;;;;;;0.45;0.40;;;1.80;92.70;;;;;;5113093;28;20044;-73
2023/11/26 04:40:37;;;;;;;0.25;0.25;;;1.80;92.70;;;;;;5094757;28;20036;-73
2023/11/26 04:43:03;;;;;;;1.15;0.47;;;1.70;92.70;;;;;;5113262;28;20075;-72
2023/11/26 04:45:28;;;;;;;1.13;0.52;;;1.80;92.80;;;;;;5113411;28;20069;-75
2023/11/26 04:47:54;;;;;;;0.38;0.35;;;1.80;92.80;;;;;;5094768;28;20126;-73
2023/11/26 04:50:20;;;;;;;1.33;0.50;;;1.80;92.80;;;;;;5112771;28;20054;-73
2023/11/26 04:52:45;;;;;;;0.77;0.40;;;1.90;92.80;;;;;;5077620;28;20405;-75
2023/11/26 04:55:12;;;;;;;1.23;0.40;;;1.90;92.70;;;;;;5112962;28;20035;-73
2023/11/26 04:57:38;;;;;;;0.60;0.30;;;1.90;92.70;;;;;;5094330;28;20100;-73
2023/11/26 05:00:07;;;;;;;0.45;0.38;;;1.90;92.70;;;;;;5094284;28;20040;-73
2023/11/26 05:02:33;;;;;;;1.15;0.50;;;1.90;92.70;;;;;;5094469;28;20043;-73
2023/11/26 05:04:59;;;;;;;0.63;0.40;;;2.00;92.70;;;;;;5094638;28;20066;-73
2023/11/26 05:07:24;;;;;;;0.60;0.30;;;1.90;92.60;;;;;;5112826;28;20078;-73
2023/11/26 05:09:50;;;;;;;0.20;0.20;;;1.90;92.60;;;;;;5112950;28;20071;-73
2023/11/26 05:12:17;;;;;;;0.30;0.30;;;1.90;92.60;;;;;;5113119;28;20044;-75
2023/11/26 05:14:43;;;;;;;0.30;0.30;;;2.00;92.60;;;;;;5078247;28;20043;-76
2023/11/26 05:17:10;;;;;;;0.20;0.20;;;2.00;92.60;;;;;;5094531;28;20040;-75
2023/11/26 05:19:36;;;;;;;0.15;0.15;;;2.00;92.60;;;;;;5112693;28;20119;-75
2023/11/26 05:22:01;;;;;;;0.30;0.30;;;1.90;92.60;;;;;;5113286;28;20066;-73
2023/11/26 05:24:27;;;;;;;0.43;0.30;;;2.00;92.60;;;;;;5095139;28;20151;-73
2023/11/26 05:26:53;;;;;;;0.95;0.30;;;2.00;92.60;;;;;;5077571;28;20036;-73
2023/11/26 05:29:19;;;;;;;0.40;0.20;;;2.00;92.70;;;;;;5094761;28;20058;-72
2023/11/26 05:31:45;;;;;;;0.38;0.30;;;2.00;92.70;;;;;;5112851;28;20070;-75
2023/11/26 05:34:10;;;;;;;1.13;0.25;;;2.00;92.60;;;;;;5112404;28;20397;-75
2023/11/26 05:36:36;;;;;;;0.43;0.35;;;2.00;92.60;;;;;;5077386;28;20116;-75
2023/11/26 05:39:03;;;;;;;0.32;0.30;;;2.00;92.70;;;;;;5094429;28;20047;-75
2023/11/26 05:41:29;;;;;;;0.28;0.28;;;2.00;92.70;;;;;;5094486;28;20493;-75
2023/11/26 05:43:55;;;;;;;0.32;0.30;;;2.10;92.70;;;;;;5112808;28;20040;-73
2023/11/26 05:46:21;;;;;;;0.88;0.40;;;2.10;92.90;;;;;;5095820;28;20205;-73
2023/11/26 05:48:46;;;;;;;1.08;0.38;;;2.10;92.70;;;;;;5115861;28;20396;-73
2023/11/26 05:51:12;;;;;;;0.35;0.30;;;2.20;92.60;;;;;;5116531;28;20489;-73
2023/11/26 05:53:38;;;;;;;2.33;0.25;;;2.20;92.60;;;;;;5116392;28;20039;-73
2023/11/26 05:56:07;;;;;;;0.20;0.20;;;2.20;92.50;;;;;;5098130;28;20069;-75
2023/11/26 05:58:33;;;;;;;0.73;0.40;;;2.30;92.60;;;;;;5098038;28;20043;-75
2023/11/26 06:00:59;;;;;;;0.22;0.20;;;2.30;92.50;;;;;;5115845;28;20036;-75
2023/11/26 06:03:25;;;;;;;0.40;0.30;;;2.40;92.50;;;;;;5097648;28;20084;-75
2023/11/26 06:05:52;;;;;;;0.25;0.22;;;2.40;92.50;;;;;;5097896;28;20450;-73
2023/11/26 06:08:19;;;;;;;0.30;0.20;;;2.50;92.50;;;;;;5080833;28;20044;-73
2023/11/26 06:10:44;;;;;;;0.32;0.20;;;2.50;92.40;;;;;;5116378;28;20055;-73
2023/11/26 06:13:11;;;;;;;1.23;0.30;;;2.50;92.40;;;;;;5097137;28;20055;-76
2023/11/26 06:15:37;;;;;;;0.20;0.20;;;2.50;92.40;;;;;;5116125;28;20039;-75
2023/11/26 06:18:03;;;;;;;0.17;0.17;;;2.60;92.70;;;;;;5115441;28;20043;-73
2023/11/26 06:20:31;;;;;;;1.70;0.30;;;2.60;92.30;;;;;;5097387;28;20058;-73
2023/11/26 06:22:57;;;;;;;0.20;0.20;;;2.70;92.40;;;;;;5097261;28;20039;-73
2023/11/26 06:25:24;;;;;;;0.28;0.25;;;2.60;92.30;;;;;;5080443;28;20112;-73
2023/11/26 06:27:49;;;;;;;0.10;0.10;;;2.60;92.30;;;;;;5115753;28;20393;-73
2023/11/26 06:30:15;;;;;;;0.15;0.15;;;2.70;92.40;;;;;;5115983;28;20039;-75
2023/11/26 06:32:42;;;;;;;0.20;0.20;;;2.70;92.40;;;;;;5115314;28;20047;-73
2023/11/26 06:35:08;;;;;;;0.65;0.30;;;2.70;92.40;;;;;;5097347;28;20039;-73
2023/11/26 06:37:34;;;;;;;0.75;0.30;;;2.70;92.40;;;;;;5097132;28;20502;-73
2023/11/26 06:40:00;;;;;;;0.28;0.25;;;2.70;92.40;;;;;;5080002;28;20043;-73
2023/11/26 06:42:26;;;;;;;0.73;0.20;;;2.60;92.40;;;;;;5115161;28;20043;-76
2023/11/26 06:44:51;;;;;;;0.43;0.30;;;2.70;92.40;;;;;;5115535;28;20436;-75
2023/11/26 06:47:17;;;;;;;0.20;0.20;;;2.70;92.40;;;;;;5097013;28;20051;-73
2023/11/26 06:49:43;;;;;;;0.30;0.30;;;2.80;92.40;;;;;;5115236;28;20040;-73
2023/11/26 06:52:09;;;;;;;0.90;0.25;;;2.80;92.40;;;;;;5096509;28;20067;-73
2023/11/26 06:54:34;;;;;;;0.30;0.28;;;2.80;92.40;;;;;;5096768;28;20071;-73
2023/11/26 06:57:00;;;;;;;1.00;0.40;;;2.80;92.70;;;;;;5096161;28;20086;-73
2023/11/26 06:59:25;;;;;;;1.00;0.20;;;2.80;92.50;;;;;;5114860;28;20039;-73
2023/11/26 07:01:51;;;;;;;0.38;0.30;;;2.90;92.50;;;;;;5096567;28;20214;-73
2023/11/26 07:04:17;;;;;;;0.20;0.20;;;2.90;92.50;;;;;;5096483;28;20043;-73
2023/11/26 07:06:43;;;;;;;0.93;0.32;;;2.90;92.40;;;;;;5062761;28;20122;-73
2023/11/26 07:09:10;;;;;;;0.28;0.28;;;2.90;92.40;;;;;;5096442;28;20047;-73
2023/11/26 07:11:35;;;;;;;0.80;0.30;;;3.00;92.40;;;;;;5114781;28;20042;-73
2023/11/26 07:14:02;;;;;;;0.68;0.30;;;3.00;92.40;;;;;;5079670;28;20039;-73
2023/11/26 07:16:28;;;;;;;0.60;0.35;;;3.10;92.40;;;;;;5114753;28;20035;-74
2023/11/26 07:18:54;;;;;;;0.65;0.30;;;3.10;92.30;;;;;;5096176;28;20595;-73
2023/11/26 07:21:20;;;;;;;0.20;0.20;;;3.10;92.30;;;;;;5094205;28;20040;-73
2023/11/26 07:23:47;;;;;;;0.73;0.30;;;3.10;92.60;;;;;;5114554;28;20485;-73
2023/11/26 07:26:16;;;;;;;1.15;0.20;;;3.20;92.30;;;;;;5096867;28;20445;-73
2023/11/26 07:28:50;;;;;;;0.20;0.20;;;3.20;92.30;;;;;;5079705;28;20481;-73
2023/11/26 07:31:18;;;;;;;0.93;0.30;;;3.30;92.30;;;;;;5071168;28;20225;-73
2023/11/26 07:33:45;;;;;;;0.10;0.10;;;3.20;92.30;;;;;;5055002;28;20152;-73
2023/11/26 07:36:15;;;;;;;0.10;0.10;;;3.30;92.30;;;;;;5038384;28;20487;-73
2023/11/26 07:38:41;;;;;;;0.10;0.10;;;3.30;92.30;;;;;;5054513;28;20070;-73
2023/11/26 07:41:08;;;;;;;0.20;0.20;;;3.30;92.30;;;;;;5054638;28;20064;-73
2023/11/26 07:43:38;;;;;;;0.20;0.10;;;3.30;92.30;;;;;;5071414;28;20068;-76
2023/11/26 07:46:04;;;;;;;0.20;0.20;;;3.40;92.40;;;;;;5054975;28;20075;-73
2023/11/26 07:48:30;;;;;;;0.35;0.22;;;3.40;92.40;;;;;;5038249;28;20102;-73
2023/11/26 07:50:55;;;;;;;0.20;0.20;;;3.40;92.30;;;;;;5054952;28;20044;-74
2023/11/26 07:53:24;;;;;;;0.20;0.20;;;3.50;92.30;;;;;;5054518;28;20048;-74
2023/11/26 07:55:56;;;;;;;0.30;0.20;;;3.50;92.30;;;;;;5054436;28;20043;-73
2023/11/26 07:58:24;;;;;;;;;;;3.50;92.30;;;;;;5071544;28;20102;-74
2023/11/26 08:00:50;;;;;;;0.80;0.30;;;3.50;92.30;;;;;;5054808;28;20066;-73
2023/11/26 08:03:17;;;;;;;0.30;0.20;;;3.60;92.30;;;;;;5112308;28;20111;-73
2023/11/26 08:05:43;;;;;;;0.40;0.20;;;3.60;92.30;;;;;;5113867;28;20047;-73
2023/11/26 08:08:09;;;;;;;0.70;0.40;;;3.70;92.30;;;;;;5095439;28;20051;-73
2023/11/26 08:10:35;;;;;;;0.63;0.30;;;3.80;92.30;;;;;;5078630;28;20062;-73
2023/11/26 08:13:01;;;;;;;0.63;0.30;;;3.80;92.30;;;;;;5078566;28;20056;-75
2023/11/26 08:15:28;;;;;;;0.20;0.20;;;3.80;92.20;;;;;;5113473;28;20031;-74
2023/11/26 08:17:55;;;;;;;0.20;0.20;;;3.80;92.20;;;;;;5095437;28;20040;-74
2023/11/26 08:20:21;;;;;;;0.20;0.20;;;3.90;92.20;;;;;;5096244;28;20473;-74
2023/11/26 08:22:48;;;;;;;0.20;0.20;;;3.90;92.20;;;;;;5113756;28;20039;-73
2023/11/26 08:25:18;;;;;;;0.20;0.20;;;4.00;92.20;;;;;;5078660;28;20489;-74
2023/11/26 08:27:45;;;;;;;0.20;0.20;;;4.00;92.20;;;;;;5054518;28;20398;-74
2023/11/26 08:30:13;;;;;;;0.20;0.17;;;4.00;92.20;;;;;;5071121;28;20040;-74
2023/11/26 08:32:44;;;;;;;0.22;0.20;;;4.10;92.20;;;;;;5036756;28;20054;-74
2023/11/26 08:35:11;;;;;;;0.20;0.20;;;4.10;92.20;;;;;;5054587;28;20147;-74
2023/11/26 08:37:43;;;;;;;0.73;0.30;;;4.10;92.20;;;;;;5070375;28;20041;-76
2023/11/26 08:40:11;;;;;;;0.17;0.10;;;4.20;92.20;;;;;;5070674;28;20042;-74
2023/11/26 08:42:37;;;;;;;0.20;0.20;;;4.20;92.20;;;;;;5036065;28;20037;-74
2023/11/26 08:45:03;;;;;;;0.20;0.20;;;4.20;92.20;;;;;;5070543;28;20539;-74
2023/11/26 08:47:30;;;;;;;1.92;0.45;;;4.30;92.20;;;;;;5051518;28;20076;-76
2023/11/26 08:49:57;;;;;;;0.43;0.30;;;4.40;92.20;;;;;;5070359;28;20147;-74
2023/11/26 08:52:25;;;;;;;0.32;0.30;;;4.40;92.10;;;;;;5037661;28;20134;-75
2023/11/26 08:54:51;;;;;;;0.65;0.30;;;4.50;92.20;;;;;;5037725;28;20033;-74
2023/11/26 08:57:21;;;;;;;0.75;0.45;;;4.50;92.10;;;;;;5053523;28;20179;-74
2023/11/26 08:59:48;;;;;;;0.20;0.20;;;4.60;92.10;;;;;;5093104;28;20044;-74
2023/11/26 09:02:14;;;;;;;0.35;0.35;;;4.60;92.10;;;;;;5078344;28;20043;-75
2023/11/26 09:04:40;;;;;;;0.20;0.20;;;4.70;92.10;;;;;;5077976;28;20047;-74
2023/11/26 09:07:06;;;;;;;1.30;0.32;;;4.60;92.10;;;;;;5094494;28;20047;-76
2023/11/26 09:09:32;;;;;;;0.15;0.15;;;4.60;92.10;;;;;;5113363;28;20043;-75
2023/11/26 09:11:58;;;;;;;0.85;0.32;;;4.70;92.10;;;;;;5094505;28;20485;-76
2023/11/26 09:14:23;;;;;;;0.73;0.35;;;4.80;92.10;;;;;;5112717;28;20040;-74
2023/11/26 09:16:50;;;;;;;0.90;0.32;;;4.80;92.10;;;;;;5094811;28;20481;-74
2023/11/26 09:19:16;;;;;;;0.95;0.40;;;4.90;92.10;;;;;;5094823;28;20126;-75
2023/11/26 09:21:48;;;;;;;0.30;0.30;;;4.90;92.10;;;;;;5112187;28;20040;-75
2023/11/26 09:24:14;;;;;;;0.30;0.30;;;4.90;92.10;;;;;;5095495;28;20036;-75
2023/11/26 09:26:40;;;;;;;0.35;0.35;;;5.00;92.10;;;;;;5095011;28;20118;-75
2023/11/26 09:29:06;;;;;;;1.35;0.40;;;5.00;92.00;;;;;;5094418;28;20051;-75
2023/11/26 09:31:32;;;;;;;0.38;0.30;;;5.10;92.10;;;;;;5112524;28;20055;-75
2023/11/26 09:33:59;;;;;;;0.73;0.40;;;5.10;92.00;;;;;;5077525;28;20512;-75
2023/11/26 09:36:25;;;;;;;0.75;0.40;;;5.20;92.10;;;;;;5094666;28;20501;-75
2023/11/26 09:38:51;;;;;;;0.57;0.40;;;5.20;92.00;;;;;;5094084;28;20101;-76
2023/11/26 09:41:34;;;;;;;1.02;0.38;;;5.20;92.00;;;;;;5069423;28;20360;-75
2023/11/26 09:44:02;;;;;;;0.55;0.40;;;5.40;92.00;;;;;;5020963;28;20417;-75
2023/11/26 09:46:34;;;;;;;1.00;0.60;;;5.40;92.30;;;;;;4993131;28;20042;-75
2023/11/26 09:49:08;;;;;;;0.30;0.30;;;5.40;92.00;;;;;;4990297;28;20056;-75
2023/11/26 09:51:38;;;;;;;1.98;0.50;;;5.40;92.00;;;;;;4916154;29;20047;-75
2023/11/26 09:54:06;;;;;;;0.65;0.40;;;5.50;92.00;;;;;;4916283;29;20056;-75
2023/11/26 09:56:35;;;;;;;0.20;0.20;;;5.40;92.00;;;;;;4914981;29;20106;-75
2023/11/26 09:59:03;;;;;;;0.30;0.30;;;5.50;92.00;;;;;;4901282;29;20410;-75
2023/11/26 10:01:28;;;;;;;1.65;0.40;;;5.60;92.10;;;;;;4916702;29;20040;-74
2023/11/26 10:03:58;;;;;;;1.08;0.52;;;5.70;92.10;;;;;;4932915;29;20028;-73
2023/11/26 10:06:26;;;;;;;0.57;0.40;;;5.70;92.10;;;;;;4917026;29;20052;-73
2023/11/26 10:08:53;;;;;;;0.35;0.32;;;5.80;92.10;;;;;;4932562;29;20123;-74
2023/11/26 10:11:21;;;;;;;0.40;0.40;;;5.80;92.00;;;;;;4934119;29;20074;-74
2023/11/26 10:13:48;;;;;;;1.02;0.50;;;6.00;92.00;;;;;;4935341;29;20043;-73
2023/11/26 10:16:31;;;;;;;1.05;0.45;;;6.00;92.00;;;;;;4951473;28;20090;-73
2023/11/26 10:19:00;;;;;;;0.63;0.50;;;6.00;92.00;;;;;;5011606;28;20058;-73
2023/11/26 10:21:27;;;;;;;0.85;0.52;;;6.10;92.00;;;;;;5031736;28;20128;-73
2023/11/26 10:23:52;;;;;;;1.20;0.43;;;6.20;92.00;;;;;;5036103;28;20495;-74
2023/11/26 10:26:20;;;;;;;1.27;0.50;;;6.20;92.00;;;;;;5035929;28;20052;-73
2023/11/26 10:28:59;;;;;;;0.47;0.47;;;6.30;92.00;;;;;;5052635;28;20135;-74
2023/11/26 10:31:25;;;;;;;0.52;0.52;;;6.30;91.90;;;;;;5092990;28;20040;-76
2023/11/26 10:33:51;;;;;;;1.08;0.63;;;6.40;91.90;;;;;;5079124;28;20048;-75
2023/11/26 10:36:35;;;;;;;2.35;0.60;;;6.40;91.90;;;;;;5115875;28;20359;-75
2023/11/26 10:39:04;;;;;;;0.40;0.40;;;6.50;92.00;;;;;;5079448;28;20047;-75
2023/11/26 10:44:54;;;;;;;0.70;0.45;;;6.50;92.00;;;;;;5095154;28;20067;-75
2023/11/26 10:47:26;;;;;;;0.63;0.50;;;6.50;92.00;;;;;;5096967;28;20587;-76
2023/11/26 10:49:54;;;;;;;0.68;0.52;;;6.50;92.00;;;;;;5063311;28;20051;-74
2023/11/26 10:52:41;;;;;;;1.30;0.65;;;6.60;92.10;;;;;;5080027;28;20043;-75
2023/11/26 10:55:14;;;;;;;0.65;0.50;;;6.60;92.10;;;;;;5096708;28;20043;-76
2023/11/26 10:57:41;;;;;;;1.95;0.65;;;6.50;92.10;;;;;;5115278;28;20498;-76
2023/11/26 11:00:19;;;;;;;0.80;0.50;;;6.60;92.10;;;;;;5080720;28;20118;-75
2023/11/26 11:02:45;;;;;;;0.80;0.50;;;6.60;92.10;;;;;;5079932;28;20039;-74
2023/11/26 11:05:47;;;;;;;0.77;0.55;;;6.70;92.20;;;;;;5096894;28;20130;-75
2023/11/26 11:08:15;;;;;;;1.13;0.63;;;6.60;92.20;;;;;;5113470;28;20035;-75
2023/11/26 11:11:08;;;;;;;0.40;0.40;;;6.70;92.20;;;;;;5096789;28;20564;-75
2023/11/26 11:13:35;;;;;;;0.77;0.40;;;6.70;92.20;;;;;;5094818;28;20051;-76
2023/11/26 11:16:01;;;;;;;0.50;0.50;;;6.80;92.30;;;;;;5079496;28;20501;-75
2023/11/26 11:18:40;;;;;;;2.58;1.13;;;6.70;92.20;;;;;;5062992;28;20062;-76
2023/11/26 11:21:12;;;;;;;0.70;0.50;;;6.80;92.30;;;;;;5063145;28;20122;-74
2023/11/26 11:23:45;;;;;;;0.93;0.60;;;6.80;92.30;;;;;;5095129;28;20038;-74
2023/11/26 11:26:13;;;;;;;0.95;0.40;;;6.90;92.30;;;;;;5078645;28;20031;-75
2023/11/26 11:28:49;;;;;;;1.23;0.40;;;7.00;92.30;;;;;;5096306;28;20409;-74
2023/11/26 11:31:18;;;;;;;0.63;0.50;;;6.90;92.20;;;;;;5114308;28;20055;-75
2023/11/26 11:34:20;;;;;;;1.25;0.70;;;7.00;92.20;;;;;;5080611;28;20031;-75
2023/11/26 11:36:49;;;;;;;0.85;0.55;;;7.10;92.20;;;;;;5084613;28;20050;-75
2023/11/26 11:39:17;;;;;;;1.13;0.50;;;7.10;92.20;;;;;;5096411;28;20056;-75
2023/11/26 11:42:08;;;;;;;0.30;0.30;;;7.10;92.20;;;;;;5062598;28;20035;-75
2023/11/26 11:44:36;;;;;;;1.17;0.55;;;7.20;92.20;;;;;;5099502;28;20066;-75
2023/11/26 11:47:04;;;;;;;2.13;0.60;;;7.20;92.20;;;;;;5096538;28;20099;-76
2023/11/26 11:50:06;;;;;;;1.45;0.65;;;7.30;92.20;;;;;;5114649;28;20047;-75
2023/11/26 11:52:33;;;;;;;0.75;0.40;;;7.30;92.20;;;;;;5114166;28;20066;-75
2023/11/26 11:55:33;;;;;;;1.60;0.60;;;7.30;92.20;;;;;;5062958;28;20036;-75
2023/11/26 11:58:11;;;;;;;1.10;0.50;;;7.40;92.20;;;;;;5094421;28;20044;-75
2023/11/26 12:00:37;;;;;;;1.20;0.60;;;7.40;92.20;;;;;;5095627;28;20028;-75
2023/11/26 12:03:03;;;;;;;1.85;0.60;;;7.50;92.20;;;;;;5114251;28;20054;-75
2023/11/26 12:05:29;;;;;;;0.55;0.40;;;7.50;92.20;;;;;;5113820;28;20036;-75
2023/11/26 12:07:58;;;;;;;1.50;0.70;;;7.50;92.20;;;;;;5113782;28;20047;-75
2023/11/26 12:10:26;;;;;;;0.55;0.43;;;7.50;92.20;;;;;;5079625;28;20039;-75
2023/11/26 12:13:06;;;;;;;1.30;0.50;;;7.60;92.20;;;;;;5079065;28;20035;-75
2023/11/26 12:15:34;;;;;;;0.50;0.30;;;7.70;92.30;;;;;;5094498;28;20034;-75
2023/11/26 12:18:00;;;;;;;0.20;0.20;;;7.70;92.20;;;;;;5095427;28;20085;-75
2023/11/26 12:20:27;;;;;;;0.73;0.68;;;7.70;92.50;;;;;;5095339;28;20550;-76
2023/11/26 12:22:53;;;;;;;1.20;0.50;;;7.70;92.20;;;;;;5095422;28;20565;-75
2023/11/26 12:25:22;;;;;;;1.67;0.60;;;7.80;92.20;;;;;;5095383;28;20066;-75
2023/11/26 12:28:01;;;;;;;0.63;0.50;;;7.80;92.20;;;;;;5113508;28;20039;-76
2023/11/26 12:30:27;;;;;;;1.85;0.50;;;7.70;92.20;;;;;;5080490;28;20043;-74
2023/11/26 12:32:52;;;;;;;0.73;0.40;;;7.80;92.30;;;;;;5095035;28;20573;-75
2023/11/26 12:35:20;;;;;;;0.40;0.40;;;7.70;92.20;;;;;;5095462;28;20405;-75
2023/11/26 12:37:46;;;;;;;0.45;0.40;;;7.70;92.30;;;;;;5095646;28;20498;-75
2023/11/26 12:40:13;;;;;;;0.82;0.50;;;7.70;92.30;;;;;;5113882;28;20035;-74
2023/11/26 12:42:41;;;;;;;0.65;0.52;;;7.70;92.30;;;;;;5113310;28;20123;-75
2023/11/26 12:45:10;;;;;;;0.75;0.45;;;7.80;92.40;;;;;;5062236;28;20090;-74
2023/11/26 12:47:48;;;;;;;0.90;0.40;;;7.70;92.40;;;;;;5094915;28;20386;-74
2023/11/26 12:50:14;;;;;;;0.38;0.38;;;7.70;92.40;;;;;;5112042;28;20040;-74
2023/11/26 12:52:40;;;;;;;1.35;0.30;;;7.70;92.40;;;;;;5094654;28;20540;-74
2023/11/26 12:55:09;;;;;;;1.55;0.70;;;7.70;92.40;;;;;;5112475;28;20046;-75
2023/11/26 12:57:38;;;;;;;1.20;0.57;;;7.70;92.40;;;;;;5094291;28;20040;-75
2023/11/26 13:00:06;;;;;;;0.32;0.32;;;7.70;92.40;;;;;;5094848;28;20036;-74
2023/11/26 13:02:35;;;;;;;1.05;0.30;;;7.70;92.40;;;;;;5094922;28;20085;-75
2023/11/26 13:05:04;;;;;;;0.65;0.50;;;7.70;92.40;;;;;;5113413;28;20067;-75
2023/11/26 13:07:38;;;;;;;1.45;0.50;;;7.60;92.40;;;;;;5095063;28;20050;-75
2023/11/26 13:10:08;;;;;;;1.15;0.70;;;7.70;92.50;;;;;;5077928;28;20039;-75